createdAt,value
2016-03-10T00:00:50.560Z,49.18
2016-03-10T00:01:50.517Z,49.38
2016-03-10T00:02:50.503Z,49.57
2016-03-10T00:03:50.506Z,49.38
2016-03-10T00:04:50.461Z,49.28
2016-03-10T00:05:50.439Z,49.28
2016-03-10T00:06:50.411Z,49.66
2016-03-10T00:07:50.382Z,49.66
2016-03-10T00:08:50.353Z,49.66
2016-03-10T00:09:50.325Z,49.85
2016-03-10T00:10:50.312Z,49.66
2016-03-10T00:11:50.267Z,49.18
2016-03-10T00:12:50.255Z,50.04
2016-03-10T00:13:50.225Z,49.85
2016-03-10T00:14:50.197Z,49.85
2016-03-10T00:15:50.169Z,49.95
2016-03-10T00:16:50.156Z,49.95
2016-03-10T00:17:50.143Z,49.85
2016-03-10T00:18:50.115Z,49.76
2016-03-10T00:19:50.086Z,49.76
2016-03-10T00:20:50.058Z,49.85
2016-03-10T00:21:50.044Z,49.66
2016-03-10T00:22:50.016Z,49.57
2016-03-10T00:23:49.971Z,49.66
2016-03-10T00:24:49.960Z,49.66
2016-03-10T00:25:49.930Z,49.64
2016-03-10T00:26:49.902Z,49.57
2016-03-10T00:27:49.888Z,49.73
2016-03-10T00:28:49.845Z,50.49
2016-03-10T00:29:49.832Z,49.54
2016-03-10T00:30:49.803Z,49.76
2016-03-10T00:31:50.062Z,49.64
2016-03-10T00:32:49.756Z,49.54
2016-03-10T00:33:49.712Z,49.66
2016-03-10T00:34:49.698Z,49.95
2016-03-10T00:35:49.686Z,49.66
2016-03-10T00:36:49.736Z,49.83
2016-03-10T00:37:49.621Z,49.64
2016-03-10T00:38:49.607Z,49.83
2016-03-10T00:39:49.578Z,49.73
2016-03-10T00:40:49.549Z,50.71
2016-03-10T00:41:49.520Z,49.73
2016-03-10T00:42:49.524Z,49.83
2016-03-10T00:43:49.479Z,49.85
2016-03-10T00:44:49.467Z,49.85
2016-03-10T00:45:49.438Z,49.83
2016-03-10T00:46:49.426Z,50.02
2016-03-10T00:47:49.412Z,50.14
2016-03-10T00:48:49.353Z,50.21
2016-03-10T00:49:49.339Z,50.24
2016-03-10T00:50:49.295Z,50.12
2016-03-10T00:51:49.267Z,50.21
2016-03-10T00:52:49.254Z,50.12
2016-03-10T00:53:49.210Z,50.31
2016-03-10T00:54:49.212Z,50.31
2016-03-10T00:55:49.168Z,50.49
2016-03-10T00:56:49.155Z,50.31
2016-03-10T00:57:49.127Z,50.4
2016-03-10T00:58:49.097Z,50.78
2016-03-10T00:59:49.070Z,50.49
2016-03-10T01:00:49.057Z,50.59
2016-03-10T01:01:49.013Z,50.49
2016-03-10T01:02:49.015Z,50.49
2016-03-10T01:03:48.971Z,50.49
2016-03-10T01:04:48.957Z,50.31
2016-03-10T01:05:48.930Z,50.49
2016-03-10T01:06:48.901Z,50.49
2016-03-10T01:07:48.888Z,50.4
2016-03-10T01:08:48.843Z,50.59
2016-03-10T01:09:48.815Z,50.49
2016-03-10T01:10:48.802Z,50.49
2016-03-10T01:11:48.790Z,50.31
2016-03-10T01:12:48.745Z,50.59
2016-03-10T01:13:48.717Z,50.31
2016-03-10T01:14:48.704Z,50.31
2016-03-10T01:15:48.675Z,50.31
2016-03-10T01:16:48.631Z,50.59
2016-03-10T01:17:48.617Z,50.4
2016-03-10T01:18:48.605Z,50.21
2016-03-10T01:19:48.561Z,50.49
2016-03-10T01:20:48.532Z,50.21
2016-03-10T01:21:48.519Z,50.31
2016-03-10T01:22:48.491Z,50.31
2016-03-10T01:23:48.461Z,50.4
2016-03-10T01:24:48.434Z,50.31
2016-03-10T01:25:48.405Z,50.59
2016-03-10T01:26:48.392Z,50.69
2016-03-10T01:27:48.364Z,50.69
2016-03-10T01:28:48.617Z,50.59
2016-03-10T01:29:48.338Z,50.69
2016-03-10T01:30:48.294Z,50.59
2016-03-10T01:31:48.280Z,50.59
2016-03-10T01:32:48.236Z,50.59
2016-03-10T01:33:48.302Z,50.49
2016-03-10T01:34:48.180Z,50.49
2016-03-10T01:35:48.166Z,50.59
2016-03-10T01:36:48.153Z,50.59
2016-03-10T01:37:48.109Z,50.69
2016-03-10T01:38:48.112Z,50.59
2016-03-10T01:39:48.068Z,50.59
2016-03-10T01:40:47.898Z,50.59
2016-03-10T01:41:48.043Z,50.4
2016-03-10T01:42:47.998Z,50.88
2016-03-10T01:43:47.954Z,50.59
2016-03-10T01:44:47.925Z,50.69
2016-03-10T01:45:47.912Z,50.98
2016-03-10T01:46:47.883Z,50.88
2016-03-10T01:47:47.855Z,51.07
2016-03-10T01:48:47.842Z,50.98
2016-03-10T01:49:47.798Z,50.98
2016-03-10T01:50:47.784Z,50.98
2016-03-10T01:51:47.756Z,51.07
2016-03-10T01:52:47.728Z,50.98
2016-03-10T01:53:47.731Z,50.98
2016-03-10T01:54:47.686Z,50.88
2016-03-10T01:55:47.673Z,50.88
2016-03-10T01:56:47.676Z,50.88
2016-03-10T01:57:47.616Z,50.98
2016-03-10T01:58:47.588Z,50.78
2016-03-10T01:59:47.574Z,50.78
2016-03-10T02:00:47.546Z,50.98
2016-03-10T02:01:47.517Z,50.78
2016-03-10T02:02:47.473Z,50.98
2016-03-10T02:03:47.444Z,50.88
2016-03-10T02:04:47.432Z,50.98
2016-03-10T02:05:47.402Z,50.78
2016-03-10T02:06:47.391Z,51.17
2016-03-10T02:07:47.346Z,50.88
2016-03-10T02:08:47.333Z,51.17
2016-03-10T02:09:47.305Z,50.98
2016-03-10T02:10:47.292Z,51.17
2016-03-10T02:11:47.263Z,50.98
2016-03-10T02:12:47.235Z,51.26
2016-03-10T02:13:47.221Z,51.26
2016-03-10T02:14:47.177Z,51.45
2016-03-10T02:15:47.180Z,51.45
2016-03-10T02:16:47.120Z,51.54
2016-03-10T02:17:47.092Z,51.17
2016-03-10T02:18:47.078Z,51.64
2016-03-10T02:19:47.034Z,51.64
2016-03-10T02:20:47.037Z,51.64
2016-03-10T02:21:46.993Z,51.54
2016-03-10T02:22:46.980Z,51.74
2016-03-10T02:23:46.937Z,51.74
2016-03-10T02:24:46.923Z,51.74
2016-03-10T02:25:46.895Z,51.74
2016-03-10T02:26:46.866Z,51.64
2016-03-10T02:27:46.853Z,51.64
2016-03-10T02:28:46.824Z,51.54
2016-03-10T02:29:46.812Z,51.64
2016-03-10T02:30:47.049Z,51.64
2016-03-10T02:31:46.755Z,51.64
2016-03-10T02:32:46.725Z,51.35
2016-03-10T02:33:46.697Z,51.26
2016-03-10T02:34:46.669Z,51.26
2016-03-10T02:35:46.624Z,51.07
2016-03-10T02:36:46.611Z,51.26
2016-03-10T02:37:46.583Z,51.54
2016-03-10T02:38:46.571Z,51.64
2016-03-10T02:39:46.541Z,51.62
2016-03-10T02:40:46.513Z,51.35
2016-03-10T02:41:46.515Z,51.45
2016-03-10T02:42:46.471Z,51.83
2016-03-10T02:43:46.459Z,52.19
2016-03-10T02:44:46.415Z,52.12
2016-03-10T02:45:46.385Z,52.09
2016-03-10T02:46:46.373Z,51.9
2016-03-10T02:47:46.328Z,51.64
2016-03-10T02:48:46.332Z,51.83
2016-03-10T02:49:46.287Z,51.81
2016-03-10T02:50:46.274Z,51.81
2016-03-10T02:51:46.245Z,52.03
2016-03-10T02:52:46.218Z,52
2016-03-10T02:53:46.220Z,51.9
2016-03-10T02:54:46.160Z,51.9
2016-03-10T02:55:46.147Z,52
2016-03-10T02:56:46.119Z,51.83
2016-03-10T02:57:46.075Z,51.9
2016-03-10T02:58:46.062Z,51.93
2016-03-10T02:59:45.877Z,51.9
2016-03-10T03:00:46.004Z,51.9
2016-03-10T03:01:45.991Z,51.9
2016-03-10T03:02:45.963Z,51.81
2016-03-10T03:03:45.934Z,51.81
2016-03-10T03:04:45.905Z,51.71
2016-03-10T03:05:45.908Z,51.81
2016-03-10T03:06:45.849Z,51.71
2016-03-10T03:07:45.820Z,51.81
2016-03-10T03:08:45.791Z,51.81
2016-03-10T03:09:45.779Z,51.71
2016-03-10T03:10:45.765Z,51.71
2016-03-10T03:11:45.721Z,51.71
2016-03-10T03:12:45.724Z,51.81
2016-03-10T03:13:45.696Z,51.71
2016-03-10T03:14:45.651Z,51.43
2016-03-10T03:15:45.623Z,51.71
2016-03-10T03:16:45.594Z,51.62
2016-03-10T03:17:45.597Z,51.71
2016-03-10T03:18:45.537Z,51.71
2016-03-10T03:19:45.524Z,51.43
2016-03-10T03:20:45.496Z,51.33
2016-03-10T03:21:45.718Z,51.71
2016-03-10T03:22:45.454Z,51.81
2016-03-10T03:23:45.410Z,51.81
2016-03-10T03:24:45.397Z,51.52
2016-03-10T03:25:45.368Z,52.09
2016-03-10T03:26:45.387Z,51.71
2016-03-10T03:27:45.312Z,51.9
2016-03-10T03:28:45.298Z,51.81
2016-03-10T03:29:45.300Z,52
2016-03-10T03:30:45.256Z,52
2016-03-10T03:31:45.213Z,51.9
2016-03-10T03:32:45.200Z,52
2016-03-10T03:33:45.155Z,52.03
2016-03-10T03:34:45.142Z,52
2016-03-10T03:35:45.114Z,51.9
2016-03-10T03:36:45.102Z,52
2016-03-10T03:37:45.088Z,52.09
2016-03-10T03:38:45.043Z,52
2016-03-10T03:39:45.030Z,51.9
2016-03-10T03:40:44.987Z,51.9
2016-03-10T03:41:44.974Z,51.9
2016-03-10T03:42:44.929Z,52
2016-03-10T03:43:44.916Z,51.9
2016-03-10T03:44:44.887Z,51.9
2016-03-10T03:45:44.859Z,52
2016-03-10T03:46:44.831Z,52
2016-03-10T03:47:44.802Z,51.81
2016-03-10T03:48:44.789Z,52
2016-03-10T03:49:44.762Z,52.28
2016-03-10T03:50:44.732Z,52.19
2016-03-10T03:51:44.720Z,52.19
2016-03-10T03:52:44.690Z,52.28
2016-03-10T03:53:44.678Z,52
2016-03-10T03:54:44.634Z,52.19
2016-03-10T03:55:44.621Z,52.19
2016-03-10T03:56:44.576Z,52.38
2016-03-10T03:57:44.548Z,52
2016-03-10T03:58:44.535Z,52
2016-03-10T03:59:44.491Z,52.38
2016-03-10T04:00:44.478Z,52.28
2016-03-10T04:01:44.465Z,52.19
2016-03-10T04:02:44.421Z,52.38
2016-03-10T04:03:44.408Z,52.28
2016-03-10T04:04:44.380Z,52.19
2016-03-10T04:05:44.367Z,52.19
2016-03-10T04:06:44.338Z,52.48
2016-03-10T04:07:44.310Z,52.48
2016-03-10T04:08:44.280Z,52.48
2016-03-10T04:09:44.236Z,52.28
2016-03-10T04:10:44.239Z,52.19
2016-03-10T04:11:44.195Z,52.38
2016-03-10T04:12:44.166Z,52.48
2016-03-10T04:13:44.153Z,52.38
2016-03-10T04:14:44.125Z,52.28
2016-03-10T04:15:44.096Z,52.38
2016-03-10T04:16:44.084Z,52.19
2016-03-10T04:17:44.039Z,52.09
2016-03-10T04:18:44.027Z,52.38
2016-03-10T04:19:43.998Z,52.28
2016-03-10T04:20:43.970Z,52.09
2016-03-10T04:21:43.941Z,52.38
2016-03-10T04:22:43.913Z,52.28
2016-03-10T04:23:44.181Z,52.38
2016-03-10T04:24:43.871Z,52.28
2016-03-10T04:25:43.859Z,52.48
2016-03-10T04:26:43.814Z,52.57
2016-03-10T04:27:43.784Z,52.48
2016-03-10T04:28:43.772Z,52.67
2016-03-10T04:29:43.744Z,52.48
2016-03-10T04:30:43.715Z,52.48
2016-03-10T04:31:43.686Z,52.67
2016-03-10T04:32:43.658Z,52.67
2016-03-10T04:33:43.661Z,52.38
2016-03-10T04:34:43.601Z,52.48
2016-03-10T04:35:43.603Z,52.19
2016-03-10T04:36:43.558Z,52.48
2016-03-10T04:37:43.546Z,52.38
2016-03-10T04:38:43.502Z,52.95
2016-03-10T04:39:43.474Z,52.09
2016-03-10T04:40:43.460Z,52.48
2016-03-10T04:41:43.432Z,52.57
2016-03-10T04:42:43.418Z,52.57
2016-03-10T04:43:43.374Z,52.57
2016-03-10T04:44:43.362Z,52.57
2016-03-10T04:45:43.333Z,52.48
2016-03-10T04:46:43.289Z,52.57
2016-03-10T04:47:43.276Z,52.57
2016-03-10T04:48:43.248Z,52.57
2016-03-10T04:49:43.251Z,52.57
2016-03-10T04:50:43.206Z,52.57
2016-03-10T04:51:43.178Z,52.57
2016-03-10T04:52:43.148Z,52.48
2016-03-10T04:53:43.121Z,52.48
2016-03-10T04:54:43.107Z,52.76
2016-03-10T04:55:43.079Z,52.48
2016-03-10T04:56:43.050Z,52.86
2016-03-10T04:57:43.022Z,52.57
2016-03-10T04:58:42.992Z,52.48
2016-03-10T04:59:42.981Z,52.57
2016-03-10T05:00:42.936Z,52.48
2016-03-10T05:01:42.908Z,52.76
2016-03-10T05:02:42.894Z,52.76
2016-03-10T05:03:42.866Z,52.67
2016-03-10T05:04:42.853Z,52.95
2016-03-10T05:05:42.824Z,52.48
2016-03-10T05:06:42.796Z,52.57
2016-03-10T05:07:42.767Z,52.86
2016-03-10T05:08:42.755Z,52.86
2016-03-10T05:09:42.726Z,52.76
2016-03-10T05:10:42.697Z,52.57
2016-03-10T05:11:42.669Z,52.76
2016-03-10T05:12:42.641Z,52.76
2016-03-10T05:13:42.613Z,53.33
2016-03-10T05:14:42.661Z,52.95
2016-03-10T05:15:42.555Z,53.05
2016-03-10T05:16:42.541Z,53.24
2016-03-10T05:17:42.529Z,53.24
2016-03-10T05:18:42.485Z,53.24
2016-03-10T05:19:42.456Z,53.24
2016-03-10T05:20:42.427Z,53.14
2016-03-10T05:21:42.415Z,53.33
2016-03-10T05:22:42.386Z,53.33
2016-03-10T05:23:42.342Z,53.33
2016-03-10T05:24:42.329Z,53.33
2016-03-10T05:25:42.284Z,53.24
2016-03-10T05:26:42.272Z,53.24
2016-03-10T05:27:42.259Z,53.14
2016-03-10T05:28:42.231Z,53.24
2016-03-10T05:29:42.217Z,53.24
2016-03-10T05:30:42.173Z,53.05
2016-03-10T05:31:42.161Z,53.24
2016-03-10T05:32:42.131Z,53.24
2016-03-10T05:33:42.103Z,53.14
2016-03-10T05:34:42.074Z,53.14
2016-03-10T05:35:42.046Z,53.14
2016-03-10T05:36:42.017Z,53.05
2016-03-10T05:37:41.988Z,53.14
2016-03-10T05:38:41.975Z,53.33
2016-03-10T05:39:41.947Z,53.24
2016-03-10T05:40:41.902Z,53.14
2016-03-10T05:41:41.890Z,53.24
2016-03-10T05:42:41.893Z,53.24
2016-03-10T05:43:41.833Z,53.33
2016-03-10T05:44:41.821Z,53.05
2016-03-10T05:45:41.791Z,53.24
2016-03-10T05:46:41.763Z,53.05
2016-03-10T05:47:41.750Z,52.95
2016-03-10T05:48:41.707Z,53.05
2016-03-10T05:49:41.693Z,52.95
2016-03-10T05:50:41.665Z,53.14
2016-03-10T05:51:41.636Z,52.95
2016-03-10T05:52:41.638Z,52.95
2016-03-10T05:53:41.579Z,52.86
2016-03-10T05:54:41.581Z,52.95
2016-03-10T05:55:41.521Z,52.95
2016-03-10T05:56:41.493Z,53.05
2016-03-10T05:57:41.480Z,53.05
2016-03-10T05:58:41.451Z,53.02
2016-03-10T05:59:41.423Z,52.95
2016-03-10T06:00:41.394Z,53.02
2016-03-10T06:01:41.381Z,53.05
2016-03-10T06:02:41.352Z,53.05
2016-03-10T06:03:41.324Z,53.14
2016-03-10T06:04:41.295Z,53.05
2016-03-10T06:05:41.267Z,53.14
2016-03-10T06:06:41.284Z,53.05
2016-03-10T06:07:41.208Z,53.14
2016-03-10T06:08:41.211Z,53.14
2016-03-10T06:09:41.182Z,53.12
2016-03-10T06:10:41.154Z,53.24
2016-03-10T06:11:41.375Z,53.12
2016-03-10T06:12:41.127Z,53.12
2016-03-10T06:13:40.942Z,53.24
2016-03-10T06:14:41.039Z,53.05
2016-03-10T06:15:41.011Z,53.33
2016-03-10T06:16:41.029Z,53.24
2016-03-10T06:17:40.953Z,53.24
2016-03-10T06:18:40.941Z,53.24
2016-03-10T06:19:40.928Z,53.14
2016-03-10T06:20:40.883Z,53.05
2016-03-10T06:21:40.855Z,53.14
2016-03-10T06:22:40.841Z,53.24
2016-03-10T06:23:40.813Z,53.33
2016-03-10T06:24:40.785Z,53.33
2016-03-10T06:25:40.772Z,53.02
2016-03-10T06:26:40.743Z,53.02
2016-03-10T06:27:40.715Z,53.14
2016-03-10T06:28:40.686Z,53.12
2016-03-10T06:29:40.657Z,53.12
2016-03-10T06:30:40.629Z,53.14
2016-03-10T06:31:40.616Z,53.21
2016-03-10T06:32:40.587Z,53.12
2016-03-10T06:33:40.560Z,53.05
2016-03-10T06:34:40.531Z,53.12
2016-03-10T06:35:40.502Z,53.05
2016-03-10T06:36:40.489Z,53.14
2016-03-10T06:37:40.445Z,53.14
2016-03-10T06:38:40.431Z,53.21
2016-03-10T06:39:40.404Z,53.12
2016-03-10T06:40:40.562Z,53.05
2016-03-10T06:41:40.347Z,53.05
2016-03-10T06:42:40.317Z,53.05
2016-03-10T06:43:40.289Z,53.14
2016-03-10T06:44:40.261Z,53.05
2016-03-10T06:45:40.248Z,53.24
2016-03-10T06:46:40.219Z,53.12
2016-03-10T06:47:40.191Z,53.14
2016-03-10T06:48:40.006Z,53.05
2016-03-10T06:49:40.150Z,53.02
2016-03-10T06:50:40.136Z,53.14
2016-03-10T06:51:40.091Z,53.21
2016-03-10T06:52:40.064Z,53.02
2016-03-10T06:53:40.035Z,53.14
2016-03-10T06:54:40.007Z,53.21
2016-03-10T06:55:39.993Z,53.05
2016-03-10T06:56:39.965Z,53.14
2016-03-10T06:57:39.935Z,53.05
2016-03-10T06:58:39.955Z,53.05
2016-03-10T06:59:39.895Z,53.02
2016-03-10T07:00:39.866Z,53.14
2016-03-10T07:01:39.838Z,53.14
2016-03-10T07:02:39.810Z,53.05
2016-03-10T07:03:39.781Z,53.12
2016-03-10T07:04:39.768Z,53.24
2016-03-10T07:05:39.739Z,53.14
2016-03-10T07:06:39.710Z,53.05
2016-03-10T07:07:39.682Z,53.24
2016-03-10T07:08:39.654Z,53.24
2016-03-10T07:09:39.625Z,53.14
2016-03-10T07:10:39.595Z,53.24
2016-03-10T07:11:39.567Z,53.24
2016-03-10T07:12:39.555Z,53.14
2016-03-10T07:13:39.776Z,52.95
2016-03-10T07:14:39.497Z,53.05
2016-03-10T07:15:39.470Z,53.14
2016-03-10T07:16:39.456Z,53.05
2016-03-10T07:17:39.428Z,53.05
2016-03-10T07:18:39.399Z,53.05
2016-03-10T07:19:39.386Z,53.05
2016-03-10T07:20:39.341Z,52.95
2016-03-10T07:21:39.330Z,53.05
2016-03-10T07:22:39.300Z,52.86
2016-03-10T07:23:39.272Z,52.86
2016-03-10T07:24:39.258Z,52.86
2016-03-10T07:25:39.230Z,52.86
2016-03-10T07:26:39.186Z,52.95
2016-03-10T07:27:39.188Z,52.95
2016-03-10T07:28:39.004Z,52.95
2016-03-10T07:29:39.116Z,52.86
2016-03-10T07:30:39.088Z,53.05
2016-03-10T07:31:39.059Z,52.86
2016-03-10T07:32:39.046Z,52.95
2016-03-10T07:33:39.001Z,52.86
2016-03-10T07:34:38.990Z,52.86
2016-03-10T07:35:38.976Z,52.76
2016-03-10T07:36:38.932Z,52.86
2016-03-10T07:37:38.918Z,52.95
2016-03-10T07:38:38.890Z,53.24
2016-03-10T07:39:38.878Z,52.76
2016-03-10T07:40:38.833Z,53.14
2016-03-10T07:41:38.804Z,53.05
2016-03-10T07:42:38.776Z,52.95
2016-03-10T07:43:38.779Z,53.14
2016-03-10T07:44:38.734Z,53.05
2016-03-10T07:45:39.050Z,53.24
2016-03-10T07:46:38.678Z,53.24
2016-03-10T07:47:38.644Z,53.14
2016-03-10T07:48:38.623Z,53.24
2016-03-10T07:49:38.589Z,53.24
2016-03-10T07:50:38.553Z,53.05
2016-03-10T07:51:38.519Z,53.24
2016-03-10T07:52:38.487Z,53.24
2016-03-10T07:53:38.457Z,53.24
2016-03-10T07:54:38.441Z,53.24
2016-03-10T07:55:38.410Z,53.24
2016-03-10T07:56:38.380Z,53.24
2016-03-10T07:57:38.381Z,53.24
2016-03-10T07:58:38.352Z,53.14
2016-03-10T07:59:38.306Z,53.33
2016-03-10T08:00:38.277Z,53.24
2016-03-10T08:01:38.279Z,53.33
2016-03-10T08:02:38.219Z,53.33
2016-03-10T08:03:38.222Z,53.24
2016-03-10T08:04:38.364Z,53.14
2016-03-10T08:05:38.148Z,53.33
2016-03-10T08:06:38.119Z,53.33
2016-03-10T08:07:38.137Z,52.95
2016-03-10T08:08:38.061Z,52.86
2016-03-10T08:09:38.033Z,52.86
2016-03-10T08:10:38.020Z,53.05
2016-03-10T08:11:37.992Z,52.95
2016-03-10T08:12:37.962Z,53.24
2016-03-10T08:13:37.950Z,52.95
2016-03-10T08:14:37.921Z,52.95
2016-03-10T08:15:37.909Z,52.95
2016-03-10T08:16:37.864Z,52.57
2016-03-10T08:17:37.836Z,52.76
2016-03-10T08:18:37.823Z,52.76
2016-03-10T08:19:37.778Z,52.76
2016-03-10T08:20:37.750Z,52.57
2016-03-10T08:21:37.736Z,52.76
2016-03-10T08:22:37.725Z,52.57
2016-03-10T08:23:37.696Z,52.57
2016-03-10T08:24:37.667Z,52.57
2016-03-10T08:25:37.638Z,52.57
2016-03-10T08:26:37.610Z,52.48
2016-03-10T08:27:37.597Z,52.57
2016-03-10T08:28:37.568Z,52.48
2016-03-10T08:29:37.555Z,52.48
2016-03-10T08:30:37.496Z,52.48
2016-03-10T08:31:37.483Z,52.57
2016-03-10T08:32:37.501Z,52.57
2016-03-10T08:33:37.426Z,52.38
2016-03-10T08:34:37.413Z,52.57
2016-03-10T08:35:37.368Z,52.48
2016-03-10T08:36:37.356Z,52.57
2016-03-10T08:37:37.342Z,52.57
2016-03-10T08:38:37.315Z,52.48
2016-03-10T08:39:37.301Z,52.57
2016-03-10T08:40:37.257Z,52.57
2016-03-10T08:41:37.245Z,52.57
2016-03-10T08:42:37.231Z,52.38
2016-03-10T08:43:37.187Z,52.57
2016-03-10T08:44:37.143Z,52.28
2016-03-10T08:45:37.146Z,52.48
2016-03-10T08:46:37.101Z,52.48
2016-03-10T08:47:37.072Z,52.28
2016-03-10T08:48:37.044Z,52.38
2016-03-10T08:49:37.031Z,53.14
2016-03-10T08:50:37.033Z,52.38
2016-03-10T08:51:37.052Z,52.28
2016-03-10T08:52:36.961Z,52.28
2016-03-10T08:53:36.964Z,52.19
2016-03-10T08:54:36.889Z,52.19
2016-03-10T08:55:36.875Z,52
2016-03-10T08:56:36.847Z,52.38
2016-03-10T08:57:36.819Z,52.38
2016-03-10T08:58:36.852Z,52.38
2016-03-10T08:59:36.760Z,52.38
2016-03-10T09:00:36.763Z,52.28
2016-03-10T09:01:36.719Z,52.38
2016-03-10T09:02:36.707Z,52.48
2016-03-10T09:03:36.662Z,52.48
2016-03-10T09:04:36.650Z,52.19
2016-03-10T09:05:36.621Z,52.28
2016-03-10T09:06:36.730Z,52.38
2016-03-10T09:07:36.575Z,52.09
2016-03-10T09:08:36.547Z,52.28
2016-03-10T09:09:36.519Z,52.38
2016-03-10T09:10:36.490Z,52
2016-03-10T09:11:36.477Z,52
2016-03-10T09:12:36.449Z,52.28
2016-03-10T09:13:36.420Z,52
2016-03-10T09:14:36.391Z,52.19
2016-03-10T09:15:36.362Z,52.28
2016-03-10T09:16:36.350Z,52.09
2016-03-10T09:17:36.305Z,52
2016-03-10T09:18:36.308Z,51.93
2016-03-10T09:19:36.264Z,52.28
2016-03-10T09:20:36.235Z,52.19
2016-03-10T09:21:36.223Z,52.28
2016-03-10T09:22:36.193Z,52.48
2016-03-10T09:23:36.182Z,52.69
2016-03-10T09:24:36.137Z,52.31
2016-03-10T09:25:36.123Z,52.4
2016-03-10T09:26:36.111Z,52.22
2016-03-10T09:27:36.067Z,52.31
2016-03-10T09:28:36.039Z,52.22
2016-03-10T09:29:36.026Z,51.93
2016-03-10T09:30:35.998Z,51.45
2016-03-10T09:31:35.968Z,51.17
2016-03-10T09:32:35.939Z,51.09
2016-03-10T09:33:35.927Z,51
2016-03-10T09:34:35.898Z,51.48
2016-03-10T09:35:35.869Z,51.86
2016-03-10T09:36:35.856Z,51.86
2016-03-10T09:37:35.813Z,51.7
2016-03-10T09:38:35.784Z,51.03
2016-03-10T09:39:36.005Z,50.64
2016-03-10T09:40:35.743Z,50.35
2016-03-10T09:41:35.714Z,50.45
2016-03-10T09:42:35.717Z,50.29
2016-03-10T09:43:35.657Z,50.95
2016-03-10T09:44:35.644Z,49.9
2016-03-10T09:45:35.631Z,49.62
2016-03-10T09:46:35.602Z,49.8
2016-03-10T09:47:35.574Z,49.52
2016-03-10T09:48:35.561Z,48.66
2016-03-10T09:49:35.532Z,49.26
2016-03-10T09:50:35.493Z,48.88
2016-03-10T09:51:35.871Z,48.88
2016-03-10T09:52:35.452Z,48.78
2016-03-10T09:53:35.423Z,48.49
2016-03-10T09:54:35.425Z,48.49
2016-03-10T09:55:35.382Z,48.49
2016-03-10T09:56:35.368Z,48.3
2016-03-10T09:57:35.371Z,48.11
2016-03-10T09:58:35.312Z,48.3
2016-03-10T09:59:35.299Z,48.02
2016-03-10T10:00:35.270Z,48.21
2016-03-10T10:01:35.241Z,48.11
2016-03-10T10:02:35.214Z,47.73
2016-03-10T10:03:35.216Z,47.44
2016-03-10T10:04:35.172Z,47.44
2016-03-10T10:05:35.314Z,47.73
2016-03-10T10:06:35.130Z,47.44
2016-03-10T10:07:35.102Z,47.56
2016-03-10T10:08:35.088Z,47.27
2016-03-10T10:09:35.060Z,47.08
2016-03-10T10:10:35.031Z,47.27
2016-03-10T10:11:35.018Z,47.18
2016-03-10T10:12:34.990Z,46.98
2016-03-10T10:13:34.977Z,46.98
2016-03-10T10:14:34.948Z,46.8
2016-03-10T10:15:34.919Z,46.89
2016-03-10T10:16:34.921Z,46.8
2016-03-10T10:17:34.863Z,46.61
2016-03-10T10:18:34.849Z,46.61
2016-03-10T10:19:34.821Z,46.61
2016-03-10T10:20:34.824Z,46.61
2016-03-10T10:21:34.779Z,46.7
2016-03-10T10:22:34.751Z,46.7
2016-03-10T10:23:34.738Z,46.89
2016-03-10T10:24:34.710Z,46.51
2016-03-10T10:25:34.681Z,46.15
2016-03-10T10:26:34.667Z,46.15
2016-03-10T10:27:35.045Z,46.03
2016-03-10T10:28:34.642Z,46.05
2016-03-10T10:29:34.582Z,45.86
2016-03-10T10:30:34.585Z,45.86
2016-03-10T10:31:34.556Z,45.86
2016-03-10T10:32:34.528Z,45.67
2016-03-10T10:33:34.531Z,45.67
2016-03-10T10:34:34.486Z,45.57
2016-03-10T10:35:34.473Z,45.67
2016-03-10T10:36:34.461Z,45.48
2016-03-10T10:37:34.416Z,45.57
2016-03-10T10:38:34.419Z,45.67
2016-03-10T10:39:34.391Z,45.38
2016-03-10T10:40:34.346Z,45.19
2016-03-10T10:41:34.318Z,45.29
2016-03-10T10:42:34.305Z,45.29
2016-03-10T10:43:34.291Z,45.29
2016-03-10T10:44:34.247Z,45.29
2016-03-10T10:45:34.235Z,45.29
2016-03-10T10:46:34.206Z,45.38
2016-03-10T10:47:34.210Z,45.29
2016-03-10T10:48:34.212Z,45.48
2016-03-10T10:49:34.355Z,44.9
2016-03-10T10:50:34.138Z,44.9
2016-03-10T10:51:34.095Z,45.21
2016-03-10T10:52:34.082Z,45.12
2016-03-10T10:53:34.068Z,45.19
2016-03-10T10:54:34.306Z,45.02
2016-03-10T10:55:34.012Z,45.02
2016-03-10T10:56:33.984Z,45.12
2016-03-10T10:57:33.954Z,44.64
2016-03-10T10:58:33.942Z,45.02
2016-03-10T10:59:33.991Z,44.64
2016-03-10T11:00:33.884Z,44.83
2016-03-10T11:01:33.872Z,44.45
2016-03-10T11:02:33.843Z,44.93
2016-03-10T11:03:33.815Z,44.45
2016-03-10T11:04:33.801Z,44.54
2016-03-10T11:05:33.789Z,44.54
2016-03-10T11:06:33.760Z,44.45
2016-03-10T11:07:33.747Z,44.73
2016-03-10T11:08:33.718Z,44.16
2016-03-10T11:09:33.706Z,43.68
2016-03-10T11:10:33.677Z,43.97
2016-03-10T11:11:33.663Z,43.97
2016-03-10T11:12:33.463Z,43.87
2016-03-10T11:13:33.622Z,43.97
2016-03-10T11:14:33.578Z,43.87
2016-03-10T11:15:33.566Z,43.97
2016-03-10T11:16:34.005Z,44.06
2016-03-10T11:17:33.508Z,43.87
2016-03-10T11:18:33.496Z,44.06
2016-03-10T11:19:33.466Z,44.06
2016-03-10T11:20:33.454Z,44.35
2016-03-10T11:21:33.425Z,43.77
2016-03-10T11:22:33.412Z,43.39
2016-03-10T11:23:33.384Z,44.26
2016-03-10T11:24:33.371Z,43.49
2016-03-10T11:25:33.342Z,43.97
2016-03-10T11:26:33.345Z,43.68
2016-03-10T11:27:33.301Z,43.77
2016-03-10T11:28:33.273Z,43.87
2016-03-10T11:29:33.243Z,43.77
2016-03-10T11:30:33.246Z,43.68
2016-03-10T11:31:33.218Z,43.77
2016-03-10T11:32:33.189Z,43.68
2016-03-10T11:33:33.161Z,43.49
2016-03-10T11:34:33.132Z,43.77
2016-03-10T11:35:33.119Z,43.68
2016-03-10T11:36:33.091Z,43.68
2016-03-10T11:37:33.094Z,43.68
2016-03-10T11:38:33.065Z,43.87
2016-03-10T11:39:33.036Z,43.77
2016-03-10T11:40:33.008Z,43.59
2016-03-10T11:41:32.994Z,43.59
2016-03-10T11:42:32.966Z,43.59
2016-03-10T11:43:32.953Z,43.49
2016-03-10T11:44:32.924Z,43.68
2016-03-10T11:45:32.896Z,43.68
2016-03-10T11:46:32.883Z,43.59
2016-03-10T11:47:32.854Z,43.68
2016-03-10T11:48:32.826Z,44.16
2016-03-10T11:49:32.797Z,43.77
2016-03-10T11:50:32.785Z,44.26
2016-03-10T11:51:32.756Z,44.73
2016-03-10T11:52:32.759Z,44.54
2016-03-10T11:53:32.730Z,44.06
2016-03-10T11:54:32.702Z,44.16
2016-03-10T11:55:32.688Z,44.54
2016-03-10T11:56:32.785Z,44.54
2016-03-10T11:57:32.648Z,44.45
2016-03-10T11:58:32.619Z,45.12
2016-03-10T11:59:32.606Z,45.4
2016-03-10T12:00:32.577Z,45.31
2016-03-10T12:01:32.549Z,45.02
2016-03-10T12:02:32.536Z,44.54
2016-03-10T12:03:33.929Z,44.83
2016-03-10T12:04:32.494Z,44.45
2016-03-10T12:05:32.482Z,44.76
2016-03-10T12:06:32.452Z,44.56
2016-03-10T12:07:32.440Z,44.18
2016-03-10T12:08:32.412Z,44.16
2016-03-10T12:09:32.397Z,44.27
2016-03-10T12:10:32.354Z,44.18
2016-03-10T12:11:32.341Z,44.09
2016-03-10T12:12:32.327Z,43.97
2016-03-10T12:13:32.283Z,43.8
2016-03-10T12:14:32.271Z,43.68
2016-03-10T12:15:32.258Z,44.09
2016-03-10T12:16:32.229Z,43.6
2016-03-10T12:17:32.233Z,43.6
2016-03-10T12:18:32.188Z,43.8
2016-03-10T12:19:32.175Z,43.9
2016-03-10T12:20:32.147Z,43.51
2016-03-10T12:21:32.118Z,43.7
2016-03-10T12:22:32.105Z,43.41
2016-03-10T12:23:32.077Z,43.32
2016-03-10T12:24:32.048Z,43.13
2016-03-10T12:25:32.019Z,43.23
2016-03-10T12:26:32.022Z,43.03
2016-03-10T12:27:32.103Z,43.41
2016-03-10T12:28:32.074Z,43.7
2016-03-10T12:29:31.952Z,43.51
2016-03-10T12:30:31.924Z,43.03
2016-03-10T12:31:31.910Z,43.03
2016-03-10T12:32:31.882Z,42.55
2016-03-10T12:33:31.870Z,42.27
2016-03-10T12:34:31.825Z,42.38
2016-03-10T12:35:31.828Z,42.1
2016-03-10T12:36:31.799Z,42
2016-03-10T12:37:31.770Z,41.71
2016-03-10T12:38:31.758Z,41.8
2016-03-10T12:39:31.729Z,42
2016-03-10T12:40:31.717Z,42.38
2016-03-10T12:41:31.672Z,42.1
2016-03-10T12:42:31.675Z,41.71
2016-03-10T12:43:31.647Z,41.8
2016-03-10T12:44:31.633Z,41.61
2016-03-10T12:45:31.605Z,40.87
2016-03-10T12:46:31.576Z,41.23
2016-03-10T12:47:31.547Z,41.44
2016-03-10T12:48:31.691Z,40.96
2016-03-10T12:49:31.521Z,40.77
2016-03-10T12:50:31.493Z,40.96
2016-03-10T12:51:31.464Z,40.67
2016-03-10T12:52:31.499Z,40.67
2016-03-10T12:53:31.424Z,40.99
2016-03-10T12:54:31.410Z,40.79
2016-03-10T12:55:31.397Z,41.17
2016-03-10T12:56:31.352Z,40.99